Time;durP1;ratioP1;P1;durP2;ratioP2;P2;SDS_P1;SDS_P2;PMS_P1;PMS_P2;Temp;Humidity;BMP_temperature;BMP_pressure;BME280_temperature;BME280_humidity;BME280_pressure;Samples;Min_cycle;Max_cycle;Signal;HPM_P1;HPM_P2
2022/11/30 00:04:24;;;;;;;;;;;;;;;;;;;;;
2022/11/30 00:32:11;;;;;;;23.07;15.87;;;;;;;4.82;91.92;95776.69;4827193;29;20927;-91
2022/11/30 00:38:53;;;;;;;23.37;15.60;;;;;;;4.71;92.33;95774.31;4792525;29;20297;-89
2022/11/30 00:52:36;;;;;;;18.60;13.83;;;;;;;4.82;90.70;95771.59;4897368;29;20309;-91
2022/11/30 01:27:22;;;;;;;21.03;14.60;;;;;;;4.74;89.91;95783.44;4836643;29;20205;-89
2022/11/30 03:38:37;;;;;;;22.27;15.07;;;;;;;4.77;88.57;95819.69;4926356;29;20224;-91
2022/11/30 04:03:20;;;;;;;;;;;;;;;;;;;;;
2022/11/30 04:41:46;;;;;;;;;;;;;;;;;;;;;
2022/11/30 04:54:16;;;;;;;16.17;11.43;;;;;;;5.10;83.08;95831.19;4922835;29;20240;-81
2022/11/30 04:56:43;;;;;;;15.23;11.33;;;;;;;5.17;83.36;95829.72;4941162;29;20209;-82
2022/11/30 04:59:09;;;;;;;16.50;11.97;;;;;;;5.28;83.15;95833.84;4933525;29;20206;-81
2022/11/30 05:01:36;;;;;;;17.07;12.13;;;;;;;5.26;82.13;95840.03;4934773;29;20590;-82
2022/11/30 05:04:02;;;;;;;17.63;13.07;;;;;;;5.32;83.03;95836.94;4934400;29;20702;-83
2022/11/30 05:06:30;;;;;;;21.13;12.57;;;;;;;5.33;82.51;95830.88;4934836;29;20599;-82
2022/11/30 05:08:56;;;;;;;18.07;13.37;;;;;;;5.36;82.83;95841.63;4933834;29;20232;-82
2022/11/30 05:11:23;;;;;;;17.30;12.83;;;;;;;5.41;82.59;95834.34;4934570;29;20610;-82
2022/11/30 05:13:49;;;;;;;19.37;13.50;;;;;;;5.48;82.75;95840.50;4933138;29;20276;-81
2022/11/30 05:16:16;;;;;;;17.93;13.60;;;;;;;5.47;81.85;95844.00;4934143;29;20208;-82
2022/11/30 05:18:42;;;;;;;20.87;14.77;;;;;;;5.45;81.77;95842.53;4934104;29;20201;-82
2022/11/30 05:21:09;;;;;;;19.80;14.67;;;;;;;5.51;81.66;95844.53;4934105;29;20290;-82
2022/11/30 05:23:36;;;;;;;19.37;14.03;;;;;;;5.57;82.37;95844.00;4933810;29;20209;-82
2022/11/30 05:26:03;;;;;;;18.43;14.23;;;;;;;5.61;82.27;95841.94;4933404;29;20201;-80
2022/11/30 05:28:30;;;;;;;18.50;14.33;;;;;;;5.62;82.22;95851.22;4932735;29;20676;-81
2022/11/30 05:31:03;;;;;;;19.80;14.43;;;;;;;5.62;82.05;95852.03;4932749;29;20201;-81
2022/11/30 05:33:29;;;;;;;20.80;14.40;;;;;;;5.65;81.93;95849.19;4932684;29;20877;-82
2022/11/30 05:35:56;;;;;;;20.50;14.73;;;;;;;5.68;82.25;95853.22;4932505;29;20216;-82
2022/11/30 05:38:22;;;;;;;19.40;14.27;;;;;;;5.68;82.36;95846.38;4929747;29;20209;-82
2022/11/30 05:40:50;;;;;;;18.07;13.53;;;;;;;5.68;81.81;95850.66;4923823;29;20198;-82
2022/11/30 05:43:17;;;;;;;17.93;13.53;;;;;;;5.69;81.90;95855.63;4926808;29;20205;-82
2022/11/30 05:45:44;;;;;;;16.90;12.90;;;;;;;5.71;81.38;95858.06;4927944;29;20202;-81
2022/11/30 05:48:10;;;;;;;17.57;13.27;;;;;;;5.71;81.69;95856.31;4932624;29;20197;-82
2022/11/30 05:50:37;;;;;;;19.77;13.67;;;;;;;5.73;81.30;95859.53;4932192;29;20206;-83
2022/11/30 05:53:03;;;;;;;17.70;14.07;;;;;;;5.76;81.40;95858.44;4932289;29;20758;-82
2022/11/30 05:55:31;;;;;;;18.10;13.00;;;;;;;5.52;80.30;95862.28;4932083;29;20229;-81
2022/11/30 05:57:58;;;;;;;17.83;14.17;;;;;;;5.40;80.32;95860.81;4931431;29;20197;-81
2022/11/30 06:00:25;;;;;;;17.33;13.40;;;;;;;5.34;80.96;95871.59;4931982;29;20209;-82
2022/11/30 06:02:55;;;;;;;16.20;12.90;;;;;;;5.16;81.64;95868.94;4931999;29;20581;-80
2022/11/30 06:05:22;;;;;;;18.47;11.93;;;;;;;5.38;100.00;95864.47;4923630;29;20229;-81
2022/11/30 06:07:48;;;;;;;16.60;11.07;;;;;;;5.94;100.00;95863.66;4942727;29;20213;-81
2022/11/30 06:10:15;;;;;;;15.37;11.57;;;;;;;6.51;100.00;95860.78;4935196;29;20198;-81
2022/11/30 06:12:42;;;;;;;15.00;12.03;;;;;;;6.76;89.94;95864.38;4933710;29;20233;-82
2022/11/30 06:15:11;;;;;;;16.50;12.27;;;;;;;7.08;88.59;95853.63;4934287;29;20357;-81
2022/11/30 06:17:37;;;;;;;16.77;12.00;;;;;;;7.28;84.05;95854.25;4933681;29;20201;-82
2022/11/30 06:20:04;;;;;;;13.87;11.07;;;;;;;7.37;77.58;95852.53;4933679;29;20822;-82
2022/11/30 06:22:31;;;;;;;13.63;11.00;;;;;;;7.38;76.82;95854.94;4934004;29;20685;-81
2022/11/30 06:24:57;;;;;;;13.60;11.17;;;;;;;7.52;77.29;95853.59;4933447;29;20236;-81
2022/11/30 06:27:24;;;;;;;13.83;11.43;;;;;;;7.72;75.74;95855.00;4933520;29;20216;-80
2022/11/30 06:29:50;;;;;;;14.53;11.23;;;;;;;7.90;74.39;95855.72;4933134;29;20213;-82
2022/11/30 06:32:18;;;;;;;17.93;10.80;;;;;;;7.95;77.27;95858.63;4932815;29;20206;-82
2022/11/30 06:34:44;;;;;;;21.13;12.87;;;;;;;7.88;75.14;95860.22;4932533;29;20632;-81
2022/11/30 06:37:11;;;;;;;29.10;13.90;;;;;;;7.40;77.60;95858.16;4932069;29;20223;-81
2022/11/30 06:39:37;;;;;;;21.17;13.17;;;;;;;7.11;76.21;95855.91;4931513;29;20230;-82
2022/11/30 06:42:04;;;;;;;15.52;11.95;;;;;;;6.96;76.73;95859.09;4928949;29;20461;-83
2022/11/30 06:44:31;;;;;;;21.00;11.97;;;;;;;6.64;77.37;95854.50;4932000;29;20226;-82
2022/11/30 06:46:57;;;;;;;14.83;11.37;;;;;;;6.47;77.26;95853.53;4931285;29;20202;-82
2022/11/30 06:49:25;;;;;;;14.33;11.67;;;;;;;6.19;77.24;95845.09;4931809;29;20201;-80
2022/11/30 06:51:51;;;;;;;65.30;48.53;;;;;;;6.09;76.99;95860.47;4927901;29;20201;-81
2022/11/30 06:54:18;;;;;;;21.47;16.57;;;;;;;5.89;77.26;95864.88;4931063;29;20594;-80
2022/11/30 06:56:44;;;;;;;15.57;12.20;;;;;;;5.81;77.81;95872.41;4932551;29;20201;-81
2022/11/30 06:59:11;;;;;;;15.30;11.47;;;;;;;5.72;77.67;95873.25;4931584;29;20212;-82
2022/11/30 07:01:37;;;;;;;13.80;10.80;;;;;;;5.63;77.70;95875.81;4932364;29;20209;-81
2022/11/30 07:04:04;;;;;;;15.17;11.13;;;;;;;5.47;78.49;95877.19;4931762;29;20261;-80
2022/11/30 07:06:32;;;;;;;14.03;11.33;;;;;;;5.38;79.31;95872.13;4932104;29;20210;-82
2022/11/30 07:08:58;;;;;;;16.00;11.37;;;;;;;5.45;79.54;95878.28;4931256;29;20281;-82
2022/11/30 07:11:25;;;;;;;13.77;10.50;;;;;;;5.47;79.80;95876.41;4931911;29;20197;-81
2022/11/30 07:13:51;;;;;;;13.23;10.53;;;;;;;5.54;78.79;95875.72;4931205;29;20229;-81
2022/11/30 07:16:17;;;;;;;17.03;10.97;;;;;;;5.49;78.96;95874.50;4932510;29;20212;-82
2022/11/30 07:18:44;;;;;;;14.10;11.13;;;;;;;5.55;79.11;95871.41;4932407;29;20202;-80
2022/11/30 07:21:11;;;;;;;12.27;10.47;;;;;;;5.40;78.73;95865.91;4933459;29;20201;-82
2022/11/30 07:26:23;;;;;;;57.37;37.50;;;;;;;5.08;80.10;95884.09;4942599;29;20208;-82
2022/11/30 07:28:53;;;;;;;20.93;15.63;;;;;;;5.09;81.33;95882.34;4934354;29;20209;-82
2022/11/30 07:31:22;;;;;;;18.37;12.40;;;;;;;5.21;80.70;95883.81;4932547;29;20240;-82
2022/11/30 07:33:49;;;;;;;14.57;11.40;;;;;;;5.34;80.17;95881.00;4932911;29;20244;-81
2022/11/30 07:36:17;;;;;;;14.40;11.13;;;;;;;5.16;79.45;95881.69;4932344;29;20830;-82
2022/11/30 07:38:45;;;;;;;14.03;11.07;;;;;;;5.12;80.41;95885.44;4931450;29;20232;-82
2022/11/30 07:41:12;;;;;;;14.50;10.90;;;;;;;5.18;80.42;95882.38;4931885;29;20204;-82
2022/11/30 07:43:39;;;;;;;13.47;10.30;;;;;;;5.10;79.18;95878.88;4932289;29;20189;-82
2022/11/30 07:46:05;;;;;;;14.40;11.20;;;;;;;5.07;79.93;95877.38;4934408;29;20198;-81
2022/11/30 07:48:32;;;;;;;15.40;11.27;;;;;;;5.25;80.24;95880.06;4933267;29;20200;-82
2022/11/30 07:51:02;;;;;;;14.70;11.50;;;;;;;5.39;80.29;95876.25;4924636;29;20198;-81
2022/11/30 07:53:30;;;;;;;17.80;12.43;;;;;;;5.51;79.80;95881.09;4934714;29;20213;-81
2022/11/30 07:56:03;;;;;;;30.67;23.17;;;;;;;5.61;79.61;95882.81;4933404;29;20353;-82
2022/11/30 07:58:29;;;;;;;19.23;13.57;;;;;;;5.62;79.10;95881.88;4925214;29;20689;-81
2022/11/30 08:01:01;;;;;;;17.87;12.80;;;;;;;5.57;78.83;95878.94;4931892;29;20280;-81
2022/11/30 08:03:27;;;;;;;15.67;11.90;;;;;;;5.60;79.18;95883.75;4930370;29;20210;-82
2022/11/30 08:05:54;;;;;;;17.17;12.67;;;;;;;5.67;79.45;95887.38;4935134;29;20721;-82
2022/11/30 08:08:20;;;;;;;16.03;12.40;;;;;;;5.51;78.91;95883.66;4935289;29;20197;-82
2022/11/30 08:10:46;;;;;;;17.63;11.57;;;;;;;5.65;79.13;95879.84;4935101;29;20205;-82
2022/11/30 08:13:14;;;;;;;16.17;12.50;;;;;;;5.72;79.07;95883.47;4935086;29;20202;-82
2022/11/30 08:15:44;;;;;;;16.40;12.70;;;;;;;5.69;78.60;95886.28;4935745;29;20225;-82
2022/11/30 08:18:10;;;;;;;18.77;14.10;;;;;;;5.74;79.13;95893.53;4934775;29;20213;-82
2022/11/30 08:20:36;;;;;;;17.87;13.50;;;;;;;5.71;79.16;95893.81;4935604;29;20201;-81
2022/11/30 08:23:03;;;;;;;17.33;13.03;;;;;;;5.65;79.03;95890.06;4935203;29;20197;-82
2022/11/30 08:25:30;;;;;;;18.37;12.57;;;;;;;5.59;79.54;95889.78;4942254;28;20225;-82
2022/11/30 08:27:56;;;;;;;18.77;13.10;;;;;;;5.68;79.67;95896.66;4935581;29;20204;-82
2022/11/30 08:30:24;;;;;;;17.23;13.00;;;;;;;5.79;79.58;95886.25;4935363;29;20201;-81
2022/11/30 08:32:51;;;;;;;18.60;13.10;;;;;;;5.70;78.87;95887.09;4935169;29;20202;-81
2022/11/30 08:35:17;;;;;;;17.70;13.27;;;;;;;5.78;79.33;95895.66;4935683;29;20230;-82
2022/11/30 08:37:58;;;;;;;17.37;12.77;;;;;;;5.83;79.04;95890.94;4935340;29;20600;-82
2022/11/30 08:40:24;;;;;;;18.50;12.73;;;;;;;5.85;78.91;95894.16;4934971;29;20606;-83
2022/11/30 08:42:51;;;;;;;18.80;13.67;;;;;;;5.86;78.49;95894.97;4935085;29;20202;-80
2022/11/30 08:45:17;;;;;;;15.63;12.40;;;;;;;5.84;78.27;95900.22;4934975;29;20217;-83
2022/11/30 08:47:45;;;;;;;20.40;14.20;;;;;;;5.67;78.12;95900.94;4934707;29;20202;-82
2022/11/30 08:50:12;;;;;;;18.00;13.30;;;;;;;5.57;78.99;95900.19;4929550;29;20193;-82
2022/11/30 08:52:38;;;;;;;51.47;37.07;;;;;;;5.65;79.78;95897.72;4934353;29;20201;-83
2022/11/30 08:55:05;;;;;;;24.00;17.80;;;;;;;5.61;78.56;95910.91;4934498;29;20225;-82
2022/11/30 08:57:33;;;;;;;20.47;14.03;;;;;;;5.56;79.00;95908.78;4934433;29;20216;-81
2022/11/30 08:59:59;;;;;;;16.87;12.90;;;;;;;5.34;78.18;95909.88;4934717;29;20936;-82
2022/11/30 09:02:26;;;;;;;19.67;13.10;;;;;;;5.27;79.78;95916.47;4934520;29;20577;-82
2022/11/30 09:04:54;;;;;;;16.90;12.77;;;;;;;5.25;79.50;95915.78;4933837;29;20217;-81
2022/11/30 09:07:21;;;;;;;19.50;13.60;;;;;;;5.10;80.19;95923.06;4934561;29;20795;-83
2022/11/30 09:09:47;;;;;;;18.97;13.83;;;;;;;4.96;81.03;95918.38;4929109;29;20229;-81
2022/11/30 09:12:14;;;;;;;19.60;14.10;;;;;;;5.09;80.95;95918.09;4929797;29;20209;-81
2022/11/30 09:14:41;;;;;;;17.27;12.43;;;;;;;5.27;80.59;95913.09;4934696;29;20234;-81
2022/11/30 09:17:07;;;;;;;17.77;13.20;;;;;;;5.43;80.11;95918.47;4934231;29;20206;-82
2022/11/30 09:19:34;;;;;;;18.33;13.00;;;;;;;5.57;78.89;95922.34;4934359;29;20198;-83
2022/11/30 09:22:02;;;;;;;17.07;12.53;;;;;;;5.52;78.33;95920.22;4933825;29;20198;-81
2022/11/30 09:24:28;;;;;;;18.17;13.53;;;;;;;5.51;78.80;95916.03;4936377;29;20236;-80
2022/11/30 09:26:56;;;;;;;18.47;13.17;;;;;;;5.61;79.14;95918.56;4932974;29;20198;-82
2022/11/30 09:29:23;;;;;;;16.30;12.83;;;;;;;5.56;78.52;95919.00;4934040;29;20245;-82
2022/11/30 09:31:49;;;;;;;17.10;13.43;;;;;;;5.68;78.79;95910.22;4933413;29;20202;-81
2022/11/30 09:34:16;;;;;;;26.63;19.43;;;;;;;5.69;78.49;95908.47;4933858;29;20225;-82
2022/11/30 09:36:42;;;;;;;47.83;33.77;;;;;;;5.67;77.88;95906.06;4925686;29;20209;-81
2022/11/30 09:39:11;;;;;;;22.93;16.17;;;;;;;5.72;77.39;95911.56;4932102;29;20205;-81
2022/11/30 09:42:03;;;;;;;20.30;14.10;;;;;;;5.83;77.65;95910.59;4932893;29;20202;-82
2022/11/30 09:44:39;;;;;;;16.80;12.80;;;;;;;5.91;77.12;95910.72;4926548;29;20224;-83
2022/11/30 09:47:19;;;;;;;15.83;12.17;;;;;;;5.86;77.32;95912.88;4934122;29;20197;-83
2022/11/30 09:49:47;;;;;;;15.63;12.60;;;;;;;5.88;77.34;95911.81;4933260;29;20193;-83
2022/11/30 09:52:17;;;;;;;15.70;11.97;;;;;;;5.99;77.30;95904.91;4934108;29;20208;-83
2022/11/30 09:54:46;;;;;;;18.70;13.13;;;;;;;6.05;77.25;95909.47;4926130;29;20226;-83
2022/11/30 09:57:23;;;;;;;17.00;12.57;;;;;;;6.08;76.52;95904.06;4933629;29;20201;-83
2022/11/30 09:59:55;;;;;;;15.83;11.83;;;;;;;6.13;76.30;95902.72;4933543;29;20193;-81
2022/11/30 10:02:26;;;;;;;16.30;12.17;;;;;;;6.16;76.50;95902.41;4930340;29;20198;-82
2022/11/30 10:04:52;;;;;;;15.63;11.97;;;;;;;6.16;76.32;95910.06;4928308;29;20217;-81
2022/11/30 10:07:36;;;;;;;16.23;12.27;;;;;;;6.19;75.89;95899.56;4929225;29;20221;-82
2022/11/30 10:10:14;;;;;;;16.00;11.93;;;;;;;6.20;75.37;95908.03;4914273;29;20210;-81
2022/11/30 10:12:47;;;;;;;15.80;11.53;;;;;;;6.26;75.53;95897.25;4930521;29;20612;-82
2022/11/30 10:15:26;;;;;;;15.70;11.90;;;;;;;6.22;75.25;95906.16;4928513;29;20304;-81
2022/11/30 10:17:55;;;;;;;17.33;11.70;;;;;;;6.28;75.55;95905.59;4932097;29;20201;-82
2022/11/30 10:20:47;;;;;;;14.83;11.70;;;;;;;6.30;76.03;95906.28;4931492;29;20808;-82
2022/11/30 10:23:29;;;;;;;19.97;15.93;;;;;;;6.21;74.15;95909.66;4931458;29;20304;-82
2022/11/30 10:26:02;;;;;;;16.53;10.67;;;;;;;6.69;100.00;95909.41;4934364;29;20210;-82
2022/11/30 10:28:39;;;;;;;10.77;8.70;;;;;;;6.65;73.06;95902.97;4930354;29;20209;-82
2022/11/30 10:31:09;;;;;;;8.90;7.43;;;;;;;6.44;71.48;95902.41;4932349;29;20207;-82
2022/11/30 10:33:45;;;;;;;10.47;8.70;;;;;;;6.11;72.62;95904.59;4931594;29;20205;-82
2022/11/30 10:36:15;;;;;;;20.53;9.83;;;;;;;6.31;95.77;95907.88;4931587;29;20220;-83
2022/11/30 10:38:46;;;;;;;12.40;8.83;;;;;;;6.64;78.99;95910.78;4930517;29;20570;-83
2022/11/30 10:41:19;;;;;;;13.27;10.50;;;;;;;6.33;74.04;95906.00;4930538;29;20197;-82
2022/11/30 10:43:52;;;;;;;14.30;11.17;;;;;;;6.11;74.83;95904.59;4930973;29;20194;-84
2022/11/30 10:46:23;;;;;;;13.77;11.23;;;;;;;6.12;76.80;95903.66;4931628;29;20213;-81
2022/11/30 10:48:54;;;;;;;14.90;11.23;;;;;;;6.20;76.17;95893.50;4931146;29;20198;-83
2022/11/30 10:51:21;;;;;;;15.63;11.13;;;;;;;6.32;75.77;95893.34;4928188;29;20202;-82
2022/11/30 10:53:47;;;;;;;15.67;11.40;;;;;;;6.40;74.97;95894.22;4930533;29;20189;-81
2022/11/30 10:56:15;;;;;;;14.67;10.53;;;;;;;6.37;74.16;95886.84;4931956;29;20205;-82
2022/11/30 10:58:51;;;;;;;13.43;10.73;;;;;;;6.21;73.43;95889.22;4930663;29;20194;-82
2022/11/30 11:01:32;;;;;;;16.37;11.20;;;;;;;6.29;73.12;95889.31;4931209;29;20201;-81
2022/11/30 11:04:13;;;;;;;15.63;11.27;;;;;;;6.36;73.30;95877.56;4927764;29;20224;-82
2022/11/30 11:06:44;;;;;;;13.17;10.50;;;;;;;6.44;73.34;95882.75;4929773;29;20585;-82
2022/11/30 11:09:33;;;;;;;14.13;11.17;;;;;;;6.37;72.01;95879.16;4930095;29;20201;-83
2022/11/30 11:12:03;;;;;;;12.97;10.53;;;;;;;6.44;72.47;95871.72;4928744;29;20613;-81
2022/11/30 11:14:30;;;;;;;12.90;9.97;;;;;;;6.45;71.69;95884.38;4930837;29;20866;-83
2022/11/30 11:16:58;;;;;;;12.50;9.47;;;;;;;6.49;71.31;95879.78;4930914;29;20902;-83
2022/11/30 11:19:32;;;;;;;12.50;9.97;;;;;;;6.42;70.72;95873.63;4930510;29;20205;-82
2022/11/30 11:22:00;;;;;;;13.50;10.57;;;;;;;6.33;71.77;95875.31;4930604;29;20190;-81
2022/11/30 11:24:27;;;;;;;13.50;9.97;;;;;;;6.30;71.85;95872.22;4931840;29;20232;-82
2022/11/30 11:26:56;;;;;;;11.73;9.10;;;;;;;6.33;72.17;95877.06;4930783;29;20201;-81
2022/11/30 11:29:32;;;;;;;10.83;9.33;;;;;;;6.41;72.56;95877.94;4929970;29;20217;-81
2022/11/30 11:32:21;;;;;;;12.43;9.27;;;;;;;6.47;71.56;95879.94;4930581;29;20209;-81
2022/11/30 11:34:47;;;;;;;12.57;9.30;;;;;;;6.46;72.82;95878.31;4930011;29;20226;-80
2022/11/30 11:37:19;;;;;;;11.90;10.00;;;;;;;6.45;71.28;95868.22;4930721;29;20212;-81
2022/11/30 11:39:56;;;;;;;10.13;8.70;;;;;;;6.54;71.47;95870.72;4931456;29;20201;-83
2022/11/30 11:42:23;;;;;;;9.30;8.13;;;;;;;6.58;70.97;95871.22;4934020;29;20221;-81
2022/11/30 11:44:52;;;;;;;8.77;7.87;;;;;;;6.65;70.90;95874.03;4929184;29;20222;-83
2022/11/30 11:47:25;;;;;;;8.67;7.67;;;;;;;6.49;68.54;95875.47;4931847;29;20205;-82
2022/11/30 11:50:03;;;;;;;9.13;6.67;;;;;;;6.40;67.68;95867.84;4933993;29;20205;-82
2022/11/30 11:52:29;;;;;;;7.53;6.73;;;;;;;6.38;69.05;95870.53;4929054;29;20201;-80
2022/11/30 11:54:58;;;;;;;8.23;6.90;;;;;;;6.34;67.63;95871.81;4933184;29;20222;-82
2022/11/30 11:57:34;;;;;;;7.47;6.60;;;;;;;6.19;68.55;95868.09;4934186;29;20208;-81
2022/11/30 12:00:07;;;;;;;7.53;6.73;;;;;;;6.23;69.52;95869.41;4931703;29;20192;-83
2022/11/30 12:02:39;;;;;;;8.83;6.47;;;;;;;6.15;67.51;95867.59;4933881;29;20194;-81
2022/11/30 12:05:12;;;;;;;7.93;6.33;;;;;;;6.22;68.55;95872.94;4933548;29;20218;-81
2022/11/30 12:07:45;;;;;;;8.80;7.20;;;;;;;6.28;68.80;95869.00;4928550;29;20245;-81
2022/11/30 12:10:25;;;;;;;10.10;8.07;;;;;;;6.33;69.35;95869.38;4934071;29;20197;-81
2022/11/30 12:12:52;;;;;;;11.97;9.40;;;;;;;6.39;70.38;95868.78;4933215;29;20249;-82
2022/11/30 12:15:26;;;;;;;12.53;10.37;;;;;;;6.45;70.35;95865.66;4934125;29;20228;-82
2022/11/30 12:18:02;;;;;;;12.50;10.43;;;;;;;6.47;69.87;95858.66;4933978;29;20196;-81
2022/11/30 12:20:35;;;;;;;15.80;11.07;;;;;;;6.42;69.93;95861.63;4934058;29;20208;-81
2022/11/30 12:23:21;;;;;;;14.13;10.97;;;;;;;6.43;69.90;95858.13;4933574;29;20727;-82
2022/11/30 12:26:02;;;;;;;21.63;14.97;;;;;;;6.38;70.04;95857.75;4930009;29;20225;-82
2022/11/30 12:28:33;;;;;;;21.17;15.47;;;;;;;6.36;70.12;95862.22;4934300;29;20202;-80
2022/11/30 12:31:11;;;;;;;15.60;11.87;;;;;;;6.33;69.12;95859.97;4933729;29;20197;-83
2022/11/30 12:33:52;;;;;;;16.57;11.47;;;;;;;6.39;69.83;95868.78;4933751;29;20198;-83
2022/11/30 12:36:28;;;;;;;14.00;11.00;;;;;;;6.45;69.98;95868.22;4933503;29;20217;-80
2022/11/30 12:38:59;;;;;;;15.17;12.07;;;;;;;6.50;70.35;95868.59;4933426;29;20185;-82
2022/11/30 12:41:35;;;;;;;15.37;11.67;;;;;;;6.47;71.06;95859.47;4928175;29;20633;-83
2022/11/30 12:44:15;;;;;;;15.23;12.50;;;;;;;6.50;70.58;95863.50;4932892;29;20228;-82
2022/11/30 12:46:54;;;;;;;14.03;11.43;;;;;;;6.54;70.25;95859.69;4933255;29;20205;-81
2022/11/30 12:49:35;;;;;;;13.87;10.97;;;;;;;6.59;70.09;95865.16;4932667;29;20306;-82
2022/11/30 12:52:20;;;;;;;15.30;11.70;;;;;;;6.50;69.10;95860.94;4932092;29;20649;-82
2022/11/30 12:54:55;;;;;;;15.80;12.17;;;;;;;6.48;69.89;95870.50;4933110;29;20230;-81
2022/11/30 12:57:29;;;;;;;14.23;12.20;;;;;;;6.50;69.83;95859.19;4933300;29;20197;-82
2022/11/30 13:00:05;;;;;;;12.43;9.90;;;;;;;6.55;69.38;95861.28;4932859;29;20197;-82
2022/11/30 13:03:05;;;;;;;12.30;10.13;;;;;;;6.55;68.61;95861.28;4932752;29;20208;-81
2022/11/30 13:05:37;;;;;;;11.63;9.10;;;;;;;6.57;68.90;95861.94;4931826;29;20222;-81
2022/11/30 13:08:12;;;;;;;12.13;10.03;;;;;;;6.52;68.91;95859.84;4932556;29;20200;-82
2022/11/30 13:10:42;;;;;;;15.63;10.87;;;;;;;6.54;68.85;95863.03;4933004;29;20212;-81
2022/11/30 13:13:14;;;;;;;13.60;10.17;;;;;;;6.59;69.27;95858.28;4931931;29;20198;-82
2022/11/30 13:15:40;;;;;;;12.10;10.20;;;;;;;6.59;69.07;95857.50;4932380;29;20685;-81
2022/11/30 13:18:15;;;;;;;13.97;11.30;;;;;;;6.61;69.85;95853.03;4932335;29;20205;-81
2022/11/30 13:20:46;;;;;;;15.60;11.93;;;;;;;6.61;69.78;95854.78;4932831;29;20799;-83
2022/11/30 13:23:22;;;;;;;19.47;14.90;;;;;;;6.59;70.08;95849.81;4932679;29;20218;-80
2022/11/30 13:25:58;;;;;;;19.80;15.00;;;;;;;6.58;70.09;95856.69;4933370;29;20225;-81
2022/11/30 13:28:32;;;;;;;18.30;13.73;;;;;;;6.63;70.57;95856.25;4926728;29;20215;-81
2022/11/30 13:31:05;;;;;;;18.13;14.10;;;;;;;6.65;70.49;95862.03;4932291;29;20202;-81
2022/11/30 13:33:47;;;;;;;16.67;13.00;;;;;;;6.63;70.65;95856.25;4932673;29;20197;-83
2022/11/30 13:36:38;;;;;;;14.13;11.07;;;;;;;6.62;70.68;95867.44;4932020;29;20629;-83
2022/11/30 13:39:10;;;;;;;14.50;11.07;;;;;;;6.61;70.28;95863.28;4912081;29;20215;-80
2022/11/30 13:41:37;;;;;;;11.70;9.63;;;;;;;6.62;69.61;95867.44;4932423;29;20198;-83
2022/11/30 13:44:05;;;;;;;12.93;9.50;;;;;;;6.63;69.54;95858.00;4931917;29;20225;-82
2022/11/30 13:46:31;;;;;;;13.57;10.23;;;;;;;6.65;69.22;95862.03;4931889;29;20202;-82
2022/11/30 13:49:21;;;;;;;12.17;9.77;;;;;;;6.69;69.45;95863.38;4931188;29;20257;-81
2022/11/30 13:51:47;;;;;;;11.03;9.47;;;;;;;6.64;69.05;95870.66;4929778;29;20204;-81
2022/11/30 13:54:37;;;;;;;10.43;8.70;;;;;;;6.68;68.61;95866.06;4932002;29;20237;-83
2022/11/30 13:57:14;;;;;;;11.97;10.43;;;;;;;6.68;67.91;95869.44;4931465;29;20228;-81
2022/11/30 13:59:45;;;;;;;12.83;10.83;;;;;;;6.64;68.09;95863.00;4926948;29;20197;-81
2022/11/30 14:02:58;;;;;;;14.37;11.77;;;;;;;6.64;68.18;95869.84;4931236;29;20198;-81
2022/11/30 14:05:40;;;;;;;13.13;10.80;;;;;;;6.54;68.37;95875.81;4930001;29;20217;-83
2022/11/30 14:08:15;;;;;;;14.63;11.17;;;;;;;6.51;68.95;95876.13;4929840;29;20229;-82
2022/11/30 14:10:43;;;;;;;10.73;8.80;;;;;;;6.44;67.96;95872.53;4932458;29;20556;-82
2022/11/30 14:13:30;;;;;;;12.47;9.10;;;;;;;6.25;69.06;95880.31;4930201;29;20561;-82
2022/11/30 14:15:59;;;;;;;14.50;10.07;;;;;;;6.21;70.06;95872.13;4929987;29;20217;-81
2022/11/30 14:18:43;;;;;;;12.60;10.03;;;;;;;6.26;69.96;95869.13;4926633;29;20209;-81
2022/11/30 14:21:18;;;;;;;14.03;10.40;;;;;;;6.25;69.92;95870.09;4932490;29;20205;-82
2022/11/30 14:23:52;;;;;;;14.27;11.00;;;;;;;6.23;70.39;95877.09;4938080;28;20786;-82
2022/11/30 14:26:23;;;;;;;14.47;11.27;;;;;;;6.18;70.70;95874.16;4952649;29;20181;-82
2022/11/30 14:28:54;;;;;;;15.23;11.77;;;;;;;6.28;70.62;95874.13;4952026;28;20208;-83
2022/11/30 14:31:24;;;;;;;15.57;11.87;;;;;;;6.32;70.77;95872.88;4952216;29;20814;-82
2022/11/30 14:33:55;;;;;;;15.50;11.10;;;;;;;6.39;71.04;95881.56;4952133;28;20204;-81
2022/11/30 14:36:27;;;;;;;16.83;11.90;;;;;;;6.39;71.26;95874.72;4951973;29;20237;-81
2022/11/30 14:38:54;;;;;;;16.60;10.83;;;;;;;6.39;71.35;95879.03;4943997;29;20190;-82
2022/11/30 14:41:22;;;;;;;14.37;11.40;;;;;;;6.40;71.13;95881.44;4932863;29;20201;-83
2022/11/30 14:44:10;;;;;;;14.67;11.67;;;;;;;6.36;71.15;95884.41;4932879;29;20709;-82
2022/11/30 14:46:36;;;;;;;15.47;11.70;;;;;;;6.33;71.10;95887.28;4931914;29;20198;-83
2022/11/30 14:49:13;;;;;;;17.27;13.17;;;;;;;6.26;71.54;95887.03;4932225;29;20751;-82
2022/11/30 14:51:43;;;;;;;18.27;13.97;;;;;;;6.23;72.23;95885.56;4932881;29;20209;-82
2022/11/30 14:54:23;;;;;;;16.23;12.70;;;;;;;6.20;72.32;95890.16;4932517;29;20889;-82
2022/11/30 14:56:56;;;;;;;16.93;13.27;;;;;;;6.20;72.26;95883.28;4932818;29;20225;-82
2022/11/30 14:59:38;;;;;;;19.13;13.57;;;;;;;6.12;72.61;95887.53;4932141;29;20190;-81
2022/11/30 15:02:11;;;;;;;19.57;14.33;;;;;;;6.04;73.07;95884.84;4932404;29;20209;-82
2022/11/30 15:04:38;;;;;;;18.97;15.07;;;;;;;6.08;73.45;95892.09;4932909;29;20226;-82
2022/11/30 15:07:13;;;;;;;22.33;16.00;;;;;;;5.98;73.52;95885.41;4932876;29;20213;-82
2022/11/30 15:09:43;;;;;;;20.27;15.27;;;;;;;5.94;73.65;95890.00;4932998;29;20693;-82
2022/11/30 15:12:10;;;;;;;24.90;18.77;;;;;;;5.98;73.78;95895.63;4932241;29;20276;-82
2022/11/30 15:14:36;;;;;;;27.37;19.07;;;;;;;5.97;73.96;95897.38;4936008;29;20217;-82
2022/11/30 15:17:03;;;;;;;22.33;17.63;;;;;;;6.02;74.07;95895.22;4936452;29;20236;-81
2022/11/30 15:19:31;;;;;;;19.63;15.47;;;;;;;6.06;73.92;95895.75;4935959;29;20658;-80
2022/11/30 15:21:58;;;;;;;19.13;14.30;;;;;;;6.08;73.92;95892.09;4928554;29;20209;-82
2022/11/30 15:24:28;;;;;;;18.63;15.13;;;;;;;6.06;73.95;95891.44;4936463;29;20224;-82
2022/11/30 15:26:57;;;;;;;19.53;14.17;;;;;;;6.07;73.68;95887.13;4930138;29;20197;-81
2022/11/30 15:29:29;;;;;;;20.20;14.60;;;;;;;5.88;74.34;95893.09;4933771;29;20602;-82
2022/11/30 15:31:57;;;;;;;20.50;14.97;;;;;;;5.75;74.72;95898.53;4936609;29;20225;-82
2022/11/30 15:34:33;;;;;;;20.53;15.63;;;;;;;5.55;75.90;95904.63;4946386;29;20723;-81
2022/11/30 15:37:00;;;;;;;19.57;14.93;;;;;;;5.44;75.98;95903.00;4944376;29;20201;-82
2022/11/30 15:39:29;;;;;;;25.23;16.30;;;;;;;5.46;76.31;95905.44;4938029;29;20205;-81
2022/11/30 15:41:57;;;;;;;21.00;15.40;;;;;;;5.56;76.49;95901.13;4941742;29;20201;-82
2022/11/30 15:44:27;;;;;;;21.63;15.83;;;;;;;5.51;75.76;95898.16;4941306;28;20224;-82
2022/11/30 15:46:58;;;;;;;20.97;16.17;;;;;;;5.57;76.30;95902.72;4941432;29;20220;-81
2022/11/30 15:49:27;;;;;;;21.37;15.03;;;;;;;5.62;75.81;95899.75;4940295;29;20201;-81
2022/11/30 15:52:03;;;;;;;20.17;15.10;;;;;;;5.60;75.38;95901.63;4943013;29;20212;-82
2022/11/30 15:54:49;;;;;;;19.33;14.70;;;;;;;5.43;75.97;95905.69;4942199;28;20221;-80
2022/11/30 15:57:16;;;;;;;17.83;14.03;;;;;;;5.41;75.68;95905.03;4940481;29;20623;-82
2022/11/30 15:59:43;;;;;;;18.23;14.30;;;;;;;5.39;76.08;95914.56;4944068;29;20651;-81
2022/11/30 16:02:26;;;;;;;18.20;14.57;;;;;;;5.43;76.21;95914.16;4944201;29;20201;-81
2022/11/30 16:05:21;;;;;;;19.40;14.97;;;;;;;5.53;75.87;95909.84;4938494;29;20213;-81
2022/11/30 16:07:51;;;;;;;18.20;14.53;;;;;;;5.63;75.43;95912.38;4936812;29;20286;-82
2022/11/30 16:10:21;;;;;;;20.23;15.57;;;;;;;5.69;75.35;95913.59;4935419;29;20194;-82
2022/11/30 16:12:49;;;;;;;23.60;18.03;;;;;;;5.71;74.95;95914.25;4934107;29;20201;-81
2022/11/30 16:15:18;;;;;;;26.93;18.33;;;;;;;5.73;75.53;95913.19;4935022;29;20220;-81
2022/11/30 16:17:45;;;;;;;26.87;19.97;;;;;;;5.74;75.25;95917.34;4926667;29;20210;-81
2022/11/30 16:20:13;;;;;;;26.33;19.73;;;;;;;5.55;75.56;95910.53;4934887;29;20311;-82
2022/11/30 16:22:41;;;;;;;30.93;21.77;;;;;;;5.61;75.60;95914.25;4934365;29;20260;-83